Billings, MT

8:49 AM MDT on October 21, 2014 (GMT -0600)
Downtown Billings | Change Station
CLOSE
Current Station
Personal Weather Station
Location: Billings, MT
Elevation: 3127 ft
Nearby Weather Stations

Elev 3127 ft 45.78 °N, 108.50 °W | Updated 14 minutes ago

Clear
Clear
43.4 °F
Feels Like 43 °F
N
1.8
Wind Variable Wind from SSW
Gusts 4.0 mph

Today
High -- | Low -- °F
--% Chance of Precip.
Yesterday
High -- | Low -- °F
Precip. -- in
7:38 AM 6:17 PM
Waning Crescent, 5% visible
Pressure 29.67 in
Visibility 10.0 miles
Clouds Few 9000 ft
Few 16000 ft
Windchill 43 °F
Dew Point 33 °F
Humidity 66%
Rainfall -999.00 in
Snow Depth Not available.
UV 0 out of 12
Pollen 2.80 out of 12
Air Quality Not available.
Flu Activity No Activity
METAR KBIL 211353Z 23014KT 10SM FEW090 FEW160 11/M02 A2973 RMK AO2 SLP047 T01111017

More Conditions Fewer Conditions

Pressure 29.67 in
Visibility 10.0 miles
Clouds Few 9000 ft
Few 16000 ft
Windchill 43 °F
Dew Point 33 °F
Humidity 66%
Rainfall -999.00 in
Snow Depth Not available.
UV 0 out of 12
Pollen 2.80 out of 12
Air Quality Not available.
Flu Activity No Activity
METAR KBIL 211353Z 23014KT 10SM FEW090 FEW160 11/M02 A2973 RMK AO2 SLP047 T01111017

More Conditions Fewer Conditions

10-Day Weather Forecast

Almanac

Astronomy

Oct. 21, 2014 Rise Set
Actual Time 7:38 AM MDT 6:17 PM MDT
Civil Twilight 7:08 AM MDT 6:47 PM MDT
Nautical Twilight 6:33 AM MDT 7:22 PM MDT
Astronomical Twilight 5:59 AM MDT 7:56 PM MDT
Moon 5:19 AM MDT 5:18 PM MDT
Length of Visible Light 11h 39m
Length of Day
10h 38m
Tomorrow will be 3m 4s shorter.
Waning Crescent, 5% of the Moon is Illuminated
Today
Waning Crescent
Oct 23
New
Oct 30
First Quarter
Nov 6
Full
Nov 14
Last Quarter

Today's Extremes

State Highs State Lows

Community

WunderPhotos

Upload Photos

1,763,678 photos uploaded!

Nearby

Snow Depth

Station Depth Elevation
Burnt Mountain 0 in 5880 ft
Crystal Lake 1 in 6050 ft
White Mill 0 in 8700 ft
Fisher Creek 1 in 9100 ft
Northeast Entrance 0 in 7350 ft

Earthquake Activity

City Distance Mag. Time & Date
No recent earthquake activity has been reported nearby.
Minimum magnitude displayed is 2.5.

Coastal Water Temperatures

Place Temperature
No Stations Reporting

Nearby Weather Stations